aviador You're here:

YPAD Decoded Metar

ADELAIDE in AUSTRALIA
Report Time2017-05-26 12:30:00
UTC Time2017-05-26 13:01:14
Flight Rules vfr VFR
Wind050° at 08 kt
W.Decomp.*RWY 05: 7.9 kt HW 1.1 kt LCW
RWY 12: 1.7 kt HW 7.8 kt LCW
W.Rank050° ranks 6
Current wind is above 050° avg. (7.0)
Visibility9999 m
Phenomena:N/A
Clouds:N/A
Expected CloudBase > 2,800 ft AGL from Temp-Dew spread
CeilingNone
Temp13°C (ISA -2)
Dew Point06°C (63% RH)
AAT9.2°C
QNH1017 hPa
Density Alt-230 ft
Elevation13 ft
Report Wrong Elevation
Raw Report
YPAD 261230Z 05008KT CAVOK 13/06 Q1017 NOSIG=

Extra information for YPAD:More info

Metar Taf Metar & Taf Last 4 Metars F.Rules Stats Wind Profile Meteogram Temp Stats Airport Information Weather charts Add Link Nearby VenuesMetar ALERT Operation Metar Decoded Social comments

Adelaide Airport Webcam